sensor_id;sensor_type;location;lat;lon;timestamp;pressure;altitude;pressure_sealevel;temperature;humidity
41222;BME280;26952;42.884;23.918;2023-02-11T00:01:42;97624.81;;;-7.28;93.69
41222;BME280;26952;42.884;23.918;2023-02-11T00:04:08;97615.47;;;-7.32;94.93
41222;BME280;26952;42.884;23.918;2023-02-11T00:06:34;97614.56;;;-7.29;96.54
41222;BME280;26952;42.884;23.918;2023-02-11T00:09:00;97591.84;;;-7.58;96.73
41222;BME280;26952;42.884;23.918;2023-02-11T00:11:26;97615.63;;;-7.44;97.11
41222;BME280;26952;42.884;23.918;2023-02-11T00:13:59;97621.63;;;-7.42;98.35
41222;BME280;26952;42.884;23.918;2023-02-11T00:16:26;97610.47;;;-7.42;99.01
41222;BME280;26952;42.884;23.918;2023-02-11T00:18:52;97622.25;;;-7.28;99.31
41222;BME280;26952;42.884;23.918;2023-02-11T00:21:23;97617.91;;;-7.24;98.57
41222;BME280;26952;42.884;23.918;2023-02-11T00:23:49;97599.22;;;-7.34;97.78
41222;BME280;26952;42.884;23.918;2023-02-11T00:26:20;97600.84;;;-7.28;97.08
41222;BME280;26952;42.884;23.918;2023-02-11T00:28:48;97605.25;;;-7.35;97.20
41222;BME280;26952;42.884;23.918;2023-02-11T00:31:15;97597.50;;;-7.33;96.81
41222;BME280;26952;42.884;23.918;2023-02-11T00:33:41;97595.66;;;-7.25;97.13
41222;BME280;26952;42.884;23.918;2023-02-11T00:36:14;97598.22;;;-7.24;96.71
41222;BME280;26952;42.884;23.918;2023-02-11T00:38:42;97595.97;;;-7.45;96.72
41222;BME280;26952;42.884;23.918;2023-02-11T00:41:09;97593.19;;;-7.33;97.19
41222;BME280;26952;42.884;23.918;2023-02-11T00:43:35;97586.25;;;-7.28;97.05
41222;BME280;26952;42.884;23.918;2023-02-11T00:46:00;97583.00;;;-7.39;96.67
41222;BME280;26952;42.884;23.918;2023-02-11T00:48:26;97568.88;;;-7.70;96.91
41222;BME280;26952;42.884;23.918;2023-02-11T00:50:51;97577.63;;;-7.80;97.11
41222;BME280;26952;42.884;23.918;2023-02-11T00:53:17;97581.88;;;-7.79;97.93
41222;BME280;26952;42.884;23.918;2023-02-11T00:55:42;97568.81;;;-7.64;97.47
41222;BME280;26952;42.884;23.918;2023-02-11T00:58:08;97582.03;;;-7.91;97.47
41222;BME280;26952;42.884;23.918;2023-02-11T01:00:33;97539.69;;;-8.25;98.69
41222;BME280;26952;42.884;23.918;2023-02-11T01:02:58;97579.66;;;-8.06;99.59
41222;BME280;26952;42.884;23.918;2023-02-11T01:05:24;97561.75;;;-8.12;100.00
41222;BME280;26952;42.884;23.918;2023-02-11T01:07:49;97567.69;;;-8.08;100.00
41222;BME280;26952;42.884;23.918;2023-02-11T01:10:15;97570.19;;;-8.04;100.00
41222;BME280;26952;42.884;23.918;2023-02-11T01:12:40;97562.34;;;-7.92;100.00
41222;BME280;26952;42.884;23.918;2023-02-11T01:15:07;97568.38;;;-7.93;100.00
41222;BME280;26952;42.884;23.918;2023-02-11T01:17:34;97563.16;;;-7.87;100.00
41222;BME280;26952;42.884;23.918;2023-02-11T01:20:05;97573.38;;;-7.84;100.00
41222;BME280;26952;42.884;23.918;2023-02-11T01:22:31;97574.22;;;-7.83;100.00
41222;BME280;26952;42.884;23.918;2023-02-11T01:24:58;97563.22;;;-7.93;100.00
41222;BME280;26952;42.884;23.918;2023-02-11T01:27:24;97557.13;;;-7.86;100.00
41222;BME280;26952;42.884;23.918;2023-02-11T01:29:49;97540.75;;;-7.77;100.00
41222;BME280;26952;42.884;23.918;2023-02-11T01:32:14;97551.72;;;-7.66;100.00
41222;BME280;26952;42.884;23.918;2023-02-11T01:34:40;97543.22;;;-7.71;100.00
41222;BME280;26952;42.884;23.918;2023-02-11T01:37:05;97532.22;;;-7.81;100.00
41222;BME280;26952;42.884;23.918;2023-02-11T01:39:34;97547.47;;;-7.69;100.00
41222;BME280;26952;42.884;23.918;2023-02-11T01:42:00;97549.81;;;-7.52;99.21
41222;BME280;26952;42.884;23.918;2023-02-11T01:44:30;97559.00;;;-7.38;97.96
41222;BME280;26952;42.884;23.918;2023-02-11T01:46:56;97542.19;;;-7.60;97.34
41222;BME280;26952;42.884;23.918;2023-02-11T01:49:30;97535.47;;;-7.67;96.91
41222;BME280;26952;42.884;23.918;2023-02-11T01:52:06;97521.84;;;-7.75;96.82
41222;BME280;26952;42.884;23.918;2023-02-11T01:54:35;97534.59;;;-7.67;96.81
41222;BME280;26952;42.884;23.918;2023-02-11T01:57:25;97537.88;;;-7.58;96.59
41222;BME280;26952;42.884;23.918;2023-02-11T02:02:21;97544.34;;;-7.34;99.45
41222;BME280;26952;42.884;23.918;2023-02-11T02:04:59;97551.19;;;-7.32;97.56
41222;BME280;26952;42.884;23.918;2023-02-11T02:07:40;97545.41;;;-7.44;97.25
41222;BME280;26952;42.884;23.918;2023-02-11T02:10:12;97552.19;;;-7.42;96.51
41222;BME280;26952;42.884;23.918;2023-02-11T02:12:38;97542.19;;;-7.60;95.70
41222;BME280;26952;42.884;23.918;2023-02-11T02:15:32;97566.88;;;-7.50;94.46
41222;BME280;26952;42.884;23.918;2023-02-11T02:23:50;97567.06;;;-8.24;96.37
41222;BME280;26952;42.884;23.918;2023-02-11T02:39:44;97563.38;;;-8.05;97.28
41222;BME280;26952;42.884;23.918;2023-02-11T02:42:11;97559.06;;;-8.03;96.60
41222;BME280;26952;42.884;23.918;2023-02-11T02:44:38;97560.69;;;-7.96;96.51
41222;BME280;26952;42.884;23.918;2023-02-11T02:47:03;97553.84;;;-7.97;96.79
41222;BME280;26952;42.884;23.918;2023-02-11T02:49:28;97556.38;;;-7.94;97.10
41222;BME280;26952;42.884;23.918;2023-02-11T02:52:22;97529.88;;;-7.94;96.58
41222;BME280;26952;42.884;23.918;2023-02-11T02:55:23;97566.03;;;-8.11;95.67
41222;BME280;26952;42.884;23.918;2023-02-11T02:58:04;97562.72;;;-8.20;95.37
41222;BME280;26952;42.884;23.918;2023-02-11T03:06:03;97531.31;;;-8.39;97.10
41222;BME280;26952;42.884;23.918;2023-02-11T03:11:08;97526.09;;;-8.30;97.91
41222;BME280;26952;42.884;23.918;2023-02-11T03:13:36;97529.19;;;-8.10;97.65
41222;BME280;26952;42.884;23.918;2023-02-11T03:16:26;97545.31;;;-7.99;96.03
41222;BME280;26952;42.884;23.918;2023-02-11T03:18:59;97526.75;;;-8.19;95.81
41222;BME280;26952;42.884;23.918;2023-02-11T03:21:29;97541.19;;;-8.09;95.57
41222;BME280;26952;42.884;23.918;2023-02-11T03:23:59;97529.25;;;-8.13;95.32
41222;BME280;26952;42.884;23.918;2023-02-11T03:26:30;97531.88;;;-8.17;95.10
41222;BME280;26952;42.884;23.918;2023-02-11T03:29:21;97546.47;;;-8.21;94.94
41222;BME280;26952;42.884;23.918;2023-02-11T03:32:00;97543.75;;;-8.09;95.95
41222;BME280;26952;42.884;23.918;2023-02-11T03:39:49;97538.22;;;-8.44;96.54
41222;BME280;26952;42.884;23.918;2023-02-11T03:42:15;97528.03;;;-8.50;96.73
41222;BME280;26952;42.884;23.918;2023-02-11T03:44:47;97520.44;;;-8.61;96.93
41222;BME280;26952;42.884;23.918;2023-02-11T03:47:16;97537.38;;;-8.46;96.90
41222;BME280;26952;42.884;23.918;2023-02-11T03:49:44;97520.34;;;-8.50;97.86
41222;BME280;26952;42.884;23.918;2023-02-11T03:52:14;97482.00;;;-8.65;98.79
41222;BME280;26952;42.884;23.918;2023-02-11T03:54:42;97525.28;;;-8.35;97.93
41222;BME280;26952;42.884;23.918;2023-02-11T03:57:10;97545.50;;;-8.12;97.18
41222;BME280;26952;42.884;23.918;2023-02-11T03:59:53;97541.94;;;-8.04;97.13
41222;BME280;26952;42.884;23.918;2023-02-11T04:02:20;97525.91;;;-8.19;95.17
41222;BME280;26952;42.884;23.918;2023-02-11T04:04:45;97536.84;;;-8.07;95.77
41222;BME280;26952;42.884;23.918;2023-02-11T04:07:11;97532.50;;;-8.02;94.70
41222;BME280;26952;42.884;23.918;2023-02-11T04:09:37;97515.66;;;-8.21;93.67
41222;BME280;26952;42.884;23.918;2023-02-11T04:12:03;97495.38;;;-8.39;92.87
41222;BME280;26952;42.884;23.918;2023-02-11T04:14:28;97517.34;;;-8.20;93.52
41222;BME280;26952;42.884;23.918;2023-02-11T04:16:53;97515.03;;;-8.38;93.62
41222;BME280;26952;42.884;23.918;2023-02-11T04:19:19;97526.31;;;-8.48;94.56
41222;BME280;26952;42.884;23.918;2023-02-11T04:21:45;97527.38;;;-8.66;95.85
41222;BME280;26952;42.884;23.918;2023-02-11T04:24:10;97523.22;;;-8.80;95.78
41222;BME280;26952;42.884;23.918;2023-02-11T04:26:36;97531.13;;;-8.98;96.61
41222;BME280;26952;42.884;23.918;2023-02-11T04:29:01;97491.00;;;-9.05;97.29
41222;BME280;26952;42.884;23.918;2023-02-11T04:31:27;97490.19;;;-9.09;98.17
41222;BME280;26952;42.884;23.918;2023-02-11T04:33:52;97505.53;;;-9.06;99.79
41222;BME280;26952;42.884;23.918;2023-02-11T04:36:18;97492.66;;;-9.01;99.86
41222;BME280;26952;42.884;23.918;2023-02-11T04:38:43;97497.78;;;-8.98;99.63
41222;BME280;26952;42.884;23.918;2023-02-11T04:41:08;97496.84;;;-8.91;100.00
41222;BME280;26952;42.884;23.918;2023-02-11T04:43:34;97497.56;;;-8.80;100.00
41222;BME280;26952;42.884;23.918;2023-02-11T04:45:59;97484.16;;;-9.03;100.00
41222;BME280;26952;42.884;23.918;2023-02-11T04:48:25;97484.84;;;-8.88;100.00
41222;BME280;26952;42.884;23.918;2023-02-11T04:50:50;97464.31;;;-8.88;100.00
41222;BME280;26952;42.884;23.918;2023-02-11T04:53:16;97488.13;;;-8.75;100.00
41222;BME280;26952;42.884;23.918;2023-02-11T04:55:41;97479.66;;;-8.85;100.00
41222;BME280;26952;42.884;23.918;2023-02-11T04:58:07;97486.41;;;-8.75;100.00
41222;BME280;26952;42.884;23.918;2023-02-11T05:00:32;97482.16;;;-8.77;100.00
41222;BME280;26952;42.884;23.918;2023-02-11T05:02:57;97489.78;;;-8.70;100.00
41222;BME280;26952;42.884;23.918;2023-02-11T05:05:23;97492.34;;;-8.71;100.00
41222;BME280;26952;42.884;23.918;2023-02-11T05:07:48;97493.22;;;-8.71;100.00
41222;BME280;26952;42.884;23.918;2023-02-11T05:10:14;97491.44;;;-8.64;100.00
41222;BME280;26952;42.884;23.918;2023-02-11T05:12:39;97490.50;;;-8.60;99.36
41222;BME280;26952;42.884;23.918;2023-02-11T05:15:05;97488.88;;;-8.67;99.42
41222;BME280;26952;42.884;23.918;2023-02-11T05:17:30;97504.13;;;-8.55;98.52
41222;BME280;26952;42.884;23.918;2023-02-11T05:19:55;97489.75;;;-8.68;99.07
41222;BME280;26952;42.884;23.918;2023-02-11T05:22:21;97483.94;;;-8.82;99.62
41222;BME280;26952;42.884;23.918;2023-02-11T05:24:46;97486.31;;;-8.67;99.27
41222;BME280;26952;42.884;23.918;2023-02-11T05:27:12;97466.09;;;-8.93;98.46
41222;BME280;26952;42.884;23.918;2023-02-11T05:29:37;97466.25;;;-9.05;97.78
41222;BME280;26952;42.884;23.918;2023-02-11T05:32:03;97471.66;;;-9.35;99.70
41222;BME280;26952;42.884;23.918;2023-02-11T05:34:28;97479.34;;;-9.35;100.00
41222;BME280;26952;42.884;23.918;2023-02-11T05:36:54;97479.19;;;-9.18;100.00
41222;BME280;26952;42.884;23.918;2023-02-11T05:39:20;97429.13;;;-9.54;100.00
41222;BME280;26952;42.884;23.918;2023-02-11T05:41:45;97479.19;;;-9.18;100.00
41222;BME280;26952;42.884;23.918;2023-02-11T05:44:10;97482.41;;;-9.01;100.00
41222;BME280;26952;42.884;23.918;2023-02-11T05:46:36;97496.81;;;-8.87;99.96
41222;BME280;26952;42.884;23.918;2023-02-11T05:49:02;97495.81;;;-8.72;100.00
41222;BME280;26952;42.884;23.918;2023-02-11T05:51:27;97481.34;;;-8.81;100.00
41222;BME280;26952;42.884;23.918;2023-02-11T05:53:53;97453.97;;;-8.79;100.00
41222;BME280;26952;42.884;23.918;2023-02-11T05:56:18;97471.78;;;-8.68;100.00
41222;BME280;26952;42.884;23.918;2023-02-11T05:58:44;97481.34;;;-8.81;100.00
41222;BME280;26952;42.884;23.918;2023-02-11T06:01:09;97491.38;;;-8.59;100.00
41222;BME280;26952;42.884;23.918;2023-02-11T06:03:34;97487.97;;;-8.63;99.34
41222;BME280;26952;42.884;23.918;2023-02-11T06:06:00;97485.38;;;-8.60;99.36
41222;BME280;26952;42.884;23.918;2023-02-11T06:08:25;97497.94;;;-8.39;99.88
41222;BME280;26952;42.884;23.918;2023-02-11T06:10:51;97479.31;;;-8.53;98.96
41222;BME280;26952;42.884;23.918;2023-02-11T06:13:16;97496.25;;;-8.40;99.39
41222;BME280;26952;42.884;23.918;2023-02-11T06:15:43;97502.06;;;-8.26;99.68
41222;BME280;26952;42.884;23.918;2023-02-11T06:18:09;97505.25;;;-8.12;99.02
41222;BME280;26952;42.884;23.918;2023-02-11T06:20:34;97507.72;;;-8.03;98.04
41222;BME280;26952;42.884;23.918;2023-02-11T06:22:59;97503.41;;;-8.01;97.35
41222;BME280;26952;42.884;23.918;2023-02-11T06:25:25;97459.41;;;-8.36;96.76
41222;BME280;26952;42.884;23.918;2023-02-11T06:27:50;97420.22;;;-8.47;96.46
41222;BME280;26952;42.884;23.918;2023-02-11T06:30:15;97484.69;;;-8.09;95.73
41222;BME280;26952;42.884;23.918;2023-02-11T06:32:41;97496.44;;;-7.93;95.56
41222;BME280;26952;42.884;23.918;2023-02-11T06:35:06;97482.78;;;-7.95;94.89
41222;BME280;26952;42.884;23.918;2023-02-11T06:37:35;97503.06;;;-7.77;95.85
41222;BME280;26952;42.884;23.918;2023-02-11T06:40:00;97496.16;;;-7.75;94.99
41222;BME280;26952;42.884;23.918;2023-02-11T06:42:26;97491.94;;;-7.79;94.27
41222;BME280;26952;42.884;23.918;2023-02-11T06:44:51;97511.41;;;-7.63;95.23
41222;BME280;26952;42.884;23.918;2023-02-11T06:47:17;97496.75;;;-7.58;94.81
41222;BME280;26952;42.884;23.918;2023-02-11T06:49:42;97518.09;;;-7.53;93.69
41222;BME280;26952;42.884;23.918;2023-02-11T06:52:07;97472.19;;;-7.74;93.09
41222;BME280;26952;42.884;23.918;2023-02-11T06:54:33;97504.91;;;-7.32;92.87
41222;BME280;26952;42.884;23.918;2023-02-11T06:56:58;97504.75;;;-7.23;92.44
41222;BME280;26952;42.884;23.918;2023-02-11T06:59:23;97501.38;;;-7.26;92.23
41222;BME280;26952;42.884;23.918;2023-02-11T07:01:49;97452.09;;;-7.49;91.86
41222;BME280;26952;42.884;23.918;2023-02-11T07:04:14;97491.13;;;-7.28;91.98
41222;BME280;26952;42.884;23.918;2023-02-11T07:06:40;97503.84;;;-7.19;91.78
41222;BME280;26952;42.884;23.918;2023-02-11T07:09:06;97492.88;;;-7.30;92.31
41222;BME280;26952;42.884;23.918;2023-02-11T07:11:32;97500.44;;;-7.21;93.68
41222;BME280;26952;42.884;23.918;2023-02-11T07:14:03;97507.38;;;-7.26;93.79
41222;BME280;26952;42.884;23.918;2023-02-11T07:16:29;97473.16;;;-7.31;95.92
41222;BME280;26952;42.884;23.918;2023-02-11T07:18:55;97505.16;;;-6.96;97.56
41222;BME280;26952;42.884;23.918;2023-02-11T07:21:21;97491.97;;;-6.78;97.07
41222;BME280;26952;42.884;23.918;2023-02-11T07:23:47;97491.84;;;-6.72;94.89
41222;BME280;26952;42.884;23.918;2023-02-11T07:26:15;97485.88;;;-6.74;94.72
41222;BME280;26952;42.884;23.918;2023-02-11T07:28:42;97495.94;;;-6.62;94.04
41222;BME280;26952;42.884;23.918;2023-02-11T07:31:09;97482.25;;;-6.64;92.48
41222;BME280;26952;42.884;23.918;2023-02-11T07:33:35;97471.78;;;-6.55;91.52
41222;BME280;26952;42.884;23.918;2023-02-11T07:36:02;97478.25;;;-6.36;88.88
41222;BME280;26952;42.884;23.918;2023-02-11T07:38:28;97472.22;;;-6.35;89.26
41222;BME280;26952;42.884;23.918;2023-02-11T07:40:53;97464.19;;;-6.22;87.15
41222;BME280;26952;42.884;23.918;2023-02-11T07:43:18;97485.19;;;-5.99;86.45
41222;BME280;26952;42.884;23.918;2023-02-11T07:45:44;97463.84;;;-6.05;85.37
41222;BME280;26952;42.884;23.918;2023-02-11T07:48:09;97461.72;;;-5.88;85.41
41222;BME280;26952;42.884;23.918;2023-02-11T07:50:34;97473.31;;;-5.71;83.21
41222;BME280;26952;42.884;23.918;2023-02-11T07:53:01;97471.41;;;-5.61;82.94
41222;BME280;26952;42.884;23.918;2023-02-11T07:55:26;97474.41;;;-5.10;83.88
41222;BME280;26952;42.884;23.918;2023-02-11T07:57:51;97477.31;;;-4.28;83.96
41222;BME280;26952;42.884;23.918;2023-02-11T08:00:17;97477.16;;;-3.37;79.53
41222;BME280;26952;42.884;23.918;2023-02-11T08:02:42;97463.53;;;-2.67;74.49
41222;BME280;26952;42.884;23.918;2023-02-11T08:05:08;97470.84;;;-1.84;71.97
41222;BME280;26952;42.884;23.918;2023-02-11T08:07:33;97460.50;;;-1.19;69.27
41222;BME280;26952;42.884;23.918;2023-02-11T08:09:58;97456.00;;;-0.54;64.50
41222;BME280;26952;42.884;23.918;2023-02-11T08:12:24;97459.81;;;-0.04;61.06
41222;BME280;26952;42.884;23.918;2023-02-11T08:14:49;97457.78;;;0.03;54.91
41222;BME280;26952;42.884;23.918;2023-02-11T08:17:15;97455.88;;;0.06;54.22
41222;BME280;26952;42.884;23.918;2023-02-11T08:19:41;97456.03;;;0.22;54.43
41222;BME280;26952;42.884;23.918;2023-02-11T08:22:07;97460.66;;;0.52;54.64
41222;BME280;26952;42.884;23.918;2023-02-11T08:24:32;97435.06;;;0.60;55.15
41222;BME280;26952;42.884;23.918;2023-02-11T08:26:57;97448.16;;;0.77;51.71
41222;BME280;26952;42.884;23.918;2023-02-11T08:29:23;97433.31;;;0.96;52.58
41222;BME280;26952;42.884;23.918;2023-02-11T08:31:48;97446.94;;;1.01;52.47
41222;BME280;26952;42.884;23.918;2023-02-11T08:34:14;97464.28;;;1.02;53.00
41222;BME280;26952;42.884;23.918;2023-02-11T08:36:42;97457.22;;;0.87;53.40
41222;BME280;26952;42.884;23.918;2023-02-11T08:39:13;97453.41;;;1.11;53.49
41222;BME280;26952;42.884;23.918;2023-02-11T08:41:39;97454.31;;;1.27;54.66
41222;BME280;26952;42.884;23.918;2023-02-11T08:44:04;97444.41;;;1.51;54.60
41222;BME280;26952;42.884;23.918;2023-02-11T08:46:30;97450.94;;;1.60;52.16
41222;BME280;26952;42.884;23.918;2023-02-11T08:48:55;97440.16;;;1.66;52.40
41222;BME280;26952;42.884;23.918;2023-02-11T08:51:23;97450.94;;;1.60;50.71
41222;BME280;26952;42.884;23.918;2023-02-11T08:53:50;97450.31;;;1.72;49.78
41222;BME280;26952;42.884;23.918;2023-02-11T08:56:17;97418.09;;;1.56;49.69
41222;BME280;26952;42.884;23.918;2023-02-11T08:58:42;97449.13;;;1.77;51.51
41222;BME280;26952;42.884;23.918;2023-02-11T09:01:19;97432.31;;;1.83;50.72
41222;BME280;26952;42.884;23.918;2023-02-11T09:03:45;97454.50;;;2.07;50.23
41222;BME280;26952;42.884;23.918;2023-02-11T09:06:12;97419.63;;;2.08;49.30
41222;BME280;26952;42.884;23.918;2023-02-11T09:08:40;97444.00;;;2.55;49.11
41222;BME280;26952;42.884;23.918;2023-02-11T09:11:06;97441.63;;;2.81;48.29
41222;BME280;26952;42.884;23.918;2023-02-11T09:13:33;97435.06;;;2.74;48.37
41222;BME280;26952;42.884;23.918;2023-02-11T09:16:00;97460.66;;;2.99;47.73
41222;BME280;26952;42.884;23.918;2023-02-11T09:18:26;97428.31;;;2.70;49.12
41222;BME280;26952;42.884;23.918;2023-02-11T09:20:53;97428.22;;;3.17;48.66
41222;BME280;26952;42.884;23.918;2023-02-11T09:23:18;97428.47;;;3.42;48.37
41222;BME280;26952;42.884;23.918;2023-02-11T09:25:43;97426.19;;;3.66;49.13
41222;BME280;26952;42.884;23.918;2023-02-11T09:28:09;97406.44;;;3.60;46.31
41222;BME280;26952;42.884;23.918;2023-02-11T09:30:36;97423.00;;;3.61;46.68
41222;BME280;26952;42.884;23.918;2023-02-11T09:33:02;97412.91;;;3.97;46.12
41222;BME280;26952;42.884;23.918;2023-02-11T09:35:27;97421.78;;;4.22;44.77
41222;BME280;26952;42.884;23.918;2023-02-11T09:37:53;97400.44;;;4.28;45.65
41222;BME280;26952;42.884;23.918;2023-02-11T09:40:18;97392.06;;;4.36;44.03
41222;BME280;26952;42.884;23.918;2023-02-11T09:43:00;97405.91;;;4.79;43.16
41222;BME280;26952;42.884;23.918;2023-02-11T09:45:28;97390.50;;;4.87;44.61
41222;BME280;26952;42.884;23.918;2023-02-11T09:50:43;97385.34;;;5.12;44.29
41222;BME280;26952;42.884;23.918;2023-02-11T09:53:39;97387.94;;;5.51;45.14
41222;BME280;26952;42.884;23.918;2023-02-11T09:56:13;97368.91;;;5.60;43.64
41222;BME280;26952;42.884;23.918;2023-02-11T09:58:41;97359.66;;;5.42;42.23
41222;BME280;26952;42.884;23.918;2023-02-11T10:06:38;97352.22;;;6.35;42.11
41222;BME280;26952;42.884;23.918;2023-02-11T10:09:14;97344.91;;;6.74;41.69
41222;BME280;26952;42.884;23.918;2023-02-11T10:14:40;97337.31;;;6.35;38.42
41222;BME280;26952;42.884;23.918;2023-02-11T10:22:59;97332.38;;;3.30;48.53
41222;BME280;26952;42.884;23.918;2023-02-11T10:25:36;97312.56;;;3.82;47.54
41222;BME280;26952;42.884;23.918;2023-02-11T10:28:12;97304.97;;;4.18;46.42
41222;BME280;26952;42.884;23.918;2023-02-11T10:30:51;97305.31;;;3.86;47.66
41222;BME280;26952;42.884;23.918;2023-02-11T10:36:00;97284.72;;;3.94;48.30
41222;BME280;26952;42.884;23.918;2023-02-11T10:38:26;97285.53;;;4.22;45.97
41222;BME280;26952;42.884;23.918;2023-02-11T10:40:52;97269.19;;;4.32;45.34
41222;BME280;26952;42.884;23.918;2023-02-11T10:43:21;97257.16;;;4.81;45.12
41222;BME280;26952;42.884;23.918;2023-02-11T10:45:52;97259.28;;;5.01;44.13
41222;BME280;26952;42.884;23.918;2023-02-11T10:48:47;97266.72;;;4.94;43.07
41222;BME280;26952;42.884;23.918;2023-02-11T10:51:26;97256.00;;;5.35;40.73
41222;BME280;26952;42.884;23.918;2023-02-11T10:56:35;97235.81;;;6.09;40.18
41222;BME280;26952;42.884;23.918;2023-02-11T10:59:06;97241.16;;;6.31;39.87
41222;BME280;26952;42.884;23.918;2023-02-11T11:01:47;97239.47;;;6.07;38.68
41222;BME280;26952;42.884;23.918;2023-02-11T11:04:43;97246.38;;;5.84;38.88
41222;BME280;26952;42.884;23.918;2023-02-11T11:15:13;97225.84;;;5.53;39.60
41222;BME280;26952;42.884;23.918;2023-02-11T11:17:41;97238.81;;;5.80;39.17
41222;BME280;26952;42.884;23.918;2023-02-11T11:22:38;97203.22;;;6.46;38.81
41222;BME280;26952;42.884;23.918;2023-02-11T11:25:05;97213.00;;;5.61;37.49
41222;BME280;26952;42.884;23.918;2023-02-11T11:27:31;97228.63;;;5.14;38.29
41222;BME280;26952;42.884;23.918;2023-02-11T11:29:56;97231.53;;;5.47;38.51
41222;BME280;26952;42.884;23.918;2023-02-11T11:32:30;97204.34;;;5.84;38.12
41222;BME280;26952;42.884;23.918;2023-02-11T11:35:16;97215.91;;;5.69;39.31
41222;BME280;26952;42.884;23.918;2023-02-11T11:37:52;97190.28;;;5.85;36.97
41222;BME280;26952;42.884;23.918;2023-02-11T11:42:44;97184.16;;;6.32;36.44
41222;BME280;26952;42.884;23.918;2023-02-11T11:47:56;97196.72;;;6.74;35.94
41222;BME280;26952;42.884;23.918;2023-02-11T11:50:34;97184.69;;;6.13;37.38
41222;BME280;26952;42.884;23.918;2023-02-11T11:53:06;97174.28;;;5.88;38.33
41222;BME280;26952;42.884;23.918;2023-02-11T11:58:04;97186.47;;;5.89;37.12
41222;BME280;26952;42.884;23.918;2023-02-11T12:05:42;97172.44;;;5.65;38.03
41222;BME280;26952;42.884;23.918;2023-02-11T12:08:15;97185.03;;;5.72;36.99
41222;BME280;26952;42.884;23.918;2023-02-11T12:15:51;97158.41;;;5.77;35.75
41222;BME280;26952;42.884;23.918;2023-02-11T12:24:17;97145.72;;;6.07;37.32
41222;BME280;26952;42.884;23.918;2023-02-11T12:26:56;97129.97;;;6.53;35.71
41222;BME280;26952;42.884;23.918;2023-02-11T12:40:18;97116.97;;;6.28;34.15
41222;BME280;26952;42.884;23.918;2023-02-11T12:57:01;97113.56;;;5.80;35.55
41222;BME280;26952;42.884;23.918;2023-02-11T12:59:45;97105.34;;;6.19;37.88
41222;BME280;26952;42.884;23.918;2023-02-11T13:02:20;97098.44;;;6.18;37.58
41222;BME280;26952;42.884;23.918;2023-02-11T13:04:53;97093.88;;;6.09;32.86
41222;BME280;26952;42.884;23.918;2023-02-11T13:07:30;97092.88;;;6.34;32.96
41222;BME280;26952;42.884;23.918;2023-02-11T13:10:02;97085.31;;;6.29;36.47
41222;BME280;26952;42.884;23.918;2023-02-11T13:12:32;97072.53;;;5.90;33.41
41222;BME280;26952;42.884;23.918;2023-02-11T13:15:18;97088.25;;;6.03;40.81
41222;BME280;26952;42.884;23.918;2023-02-11T13:17:51;97083.31;;;5.98;40.64
41222;BME280;26952;42.884;23.918;2023-02-11T13:23:14;97085.00;;;6.45;42.28
41222;BME280;26952;42.884;23.918;2023-02-11T13:28:31;97069.34;;;6.54;41.86
41222;BME280;26952;42.884;23.918;2023-02-11T13:31:01;97070.06;;;6.56;42.20
41222;BME280;26952;42.884;23.918;2023-02-11T13:33:35;97061.69;;;6.51;43.93
41222;BME280;26952;42.884;23.918;2023-02-11T13:38:28;97066.78;;;6.31;43.03
41222;BME280;26952;42.884;23.918;2023-02-11T13:43:31;97065.53;;;6.02;42.91
41222;BME280;26952;42.884;23.918;2023-02-11T13:46:10;97060.81;;;5.83;43.07
41222;BME280;26952;42.884;23.918;2023-02-11T13:48:54;97042.47;;;5.47;44.42
41222;BME280;26952;42.884;23.918;2023-02-11T13:51:37;97059.66;;;5.04;46.38
41222;BME280;26952;42.884;23.918;2023-02-11T13:54:06;97028.97;;;4.81;46.85
41222;BME280;26952;42.884;23.918;2023-02-11T13:56:38;97043.34;;;4.75;47.42
41222;BME280;26952;42.884;23.918;2023-02-11T13:59:43;97023.47;;;4.35;48.72
41222;BME280;26952;42.884;23.918;2023-02-11T14:02:04;97049.69;;;4.22;48.83
41222;BME280;26952;42.884;23.918;2023-02-11T14:08:16;97040.38;;;3.67;50.82
41222;BME280;26952;42.884;23.918;2023-02-11T14:13:36;97031.13;;;3.49;52.75
41222;BME280;26952;42.884;23.918;2023-02-11T14:16:22;97036.59;;;3.19;53.38
41222;BME280;26952;42.884;23.918;2023-02-11T14:21:18;97021.38;;;2.85;53.96
41222;BME280;26952;42.884;23.918;2023-02-11T14:23:44;97021.38;;;2.71;54.45
41222;BME280;26952;42.884;23.918;2023-02-11T14:28:47;97018.81;;;2.29;55.94
41222;BME280;26952;42.884;23.918;2023-02-11T14:31:21;97031.16;;;2.27;57.74
41222;BME280;26952;42.884;23.918;2023-02-11T14:36:57;97043.91;;;1.74;58.95
41222;BME280;26952;42.884;23.918;2023-02-11T14:42:19;97018.34;;;1.05;61.73
41222;BME280;26952;42.884;23.918;2023-02-11T14:44:50;97032.41;;;1.03;63.69
41222;BME280;26952;42.884;23.918;2023-02-11T14:47:28;97033.00;;;0.77;65.55
41222;BME280;26952;42.884;23.918;2023-02-11T14:50:00;97020.00;;;0.77;65.39
41222;BME280;26952;42.884;23.918;2023-02-11T14:52:28;97033.00;;;0.77;64.51
41222;BME280;26952;42.884;23.918;2023-02-11T14:57:37;97023.69;;;0.57;66.81
41222;BME280;26952;42.884;23.918;2023-02-11T15:00:13;96998.13;;;0.33;67.25
41222;BME280;26952;42.884;23.918;2023-02-11T15:02:42;97021.59;;;0.48;67.22
41222;BME280;26952;42.884;23.918;2023-02-11T15:07:50;96988.13;;;0.25;66.91
41222;BME280;26952;42.884;23.918;2023-02-11T15:10:28;96986.69;;;0.20;67.23
41222;BME280;26952;42.884;23.918;2023-02-11T15:12:55;96996.78;;;0.26;66.67
41222;BME280;26952;42.884;23.918;2023-02-11T15:15:22;96997.59;;;0.26;68.27
41222;BME280;26952;42.884;23.918;2023-02-11T15:17:47;96994.44;;;0.37;66.85
41222;BME280;26952;42.884;23.918;2023-02-11T15:20:25;97003.25;;;0.34;65.73
41222;BME280;26952;42.884;23.918;2023-02-11T15:23:03;97008.63;;;0.31;66.53
41222;BME280;26952;42.884;23.918;2023-02-11T15:25:29;96988.72;;;0.15;67.38
41222;BME280;26952;42.884;23.918;2023-02-11T15:27:57;96959.53;;;-0.08;66.98
41222;BME280;26952;42.884;23.918;2023-02-11T15:35:22;96999.66;;;0.37;67.13
41222;BME280;26952;42.884;23.918;2023-02-11T15:37:48;96977.03;;;0.06;66.13